Time;durP1;ratioP1;P1;durP2;ratioP2;P2;SDS_P1;SDS_P2;PMS_P1;PMS_P2;Temp;Humidity;BMP_temperature;BMP_pressure;BME280_temperature;BME280_humidity;BME280_pressure;Samples;Min_cycle;Max_cycle;Signal;HPM_P1;HPM_P2
2021/08/14 00:00:01;;;;;;;;;;;;;;;;;;5076092;28;19981;-69
2021/08/14 00:02:27;;;;;;;;;;;;;;;;;;5074466;28;19920;-69
2021/08/14 00:04:53;;;;;;;;;;;;;;;;;;5079483;28;19908;-69
2021/08/14 00:07:19;;;;;;;;;;;;;;;;;;5077010;28;19999;-69
2021/08/14 00:09:45;;;;;;;;;;;;;;;;;;5075887;28;19986;-69
2021/08/14 00:12:11;;;;;;;;;;;;;;;;;;5076605;28;19916;-69
2021/08/14 00:14:36;;;;;;;;;;;;;;;;;;5072196;28;19928;-69
2021/08/14 00:17:02;;;;;;;;;;;;;;;;;;5079654;28;20380;-69
2021/08/14 00:19:29;;;;;;;;;;;;;;;;;;5076618;28;19913;-69
2021/08/14 00:21:55;;;;;;;;;;;;;;;;;;5076278;28;19971;-69
2021/08/14 00:24:21;;;;;;;;;;;;;;;;;;5076415;28;19985;-69
2021/08/14 00:26:47;;;;;;;;;;;;;;;;;;5073214;28;20352;-69
2021/08/14 00:29:13;;;;;;;;;;;;;;;;;;5076610;28;19935;-69
2021/08/14 00:31:39;;;;;;;;;;;;;;;;;;5077651;28;20360;-69
2021/08/14 00:34:05;;;;;;;;;;;;;;;;;;5061195;28;19965;-69
2021/08/14 00:36:30;;;;;;;;;;;;;;;;;;5076090;28;20233;-69
2021/08/14 00:38:57;;;;;;;;;;;;;;;;;;5074478;28;19947;-69
2021/08/14 00:41:23;;;;;;;;;;;;;;;;;;5074197;28;19912;-69
2021/08/14 00:43:49;;;;;;;;;;;;;;;;;;5078209;28;19908;-69
2021/08/14 00:46:15;;;;;;;;;;;;;;;;;;5076051;28;20277;-69
2021/08/14 00:48:41;;;;;;;;;;;;;;;;;;5075981;28;19917;-69
2021/08/14 00:51:08;;;;;;;;;;;;;;;;;;5075722;28;19919;-69
2021/08/14 00:53:34;;;;;;;;;;;;;;;;;;5071662;28;19920;-69
2021/08/14 00:55:59;;;;;;;;;;;;;;;;;;5077954;28;19913;-69
2021/08/14 00:58:25;;;;;;;;;;;;;;;;;;5075837;28;19917;-69
2021/08/14 01:00:51;;;;;;;;;;;;;;;;;;5075787;28;19955;-69
2021/08/14 01:03:17;;;;;;;;;;;;;;;;;;5075315;28;19919;-69
2021/08/14 01:05:43;;;;;;;;;;;;;;;;;;5072450;28;19920;-69
2021/08/14 01:08:09;;;;;;;;;;;;;;;;;;5076954;28;20331;-69
2021/08/14 01:10:35;;;;;;;;;;;;;;;;;;5075962;28;19909;-69
2021/08/14 01:13:01;;;;;;;;;;;;;;;;;;5075743;28;19916;-69
2021/08/14 01:15:26;;;;;;;;;;;;;;;;;;5075188;28;19967;-69
2021/08/14 01:17:52;;;;;;;;;;;;;;;;;;5073495;28;19916;-69
2021/08/14 01:20:18;;;;;;;;;;;;;;;;;;5075113;28;20279;-69
2021/08/14 01:22:44;;;;;;;;;;;;;;;;;;5076299;28;19916;-69
2021/08/14 01:25:10;;;;;;;;;;;;;;;;;;5075217;28;20359;-69
2021/08/14 01:27:36;;;;;;;;;;;;;;;;;;5059644;28;19921;-69
2021/08/14 01:30:02;;;;;;;;;;;;;;;;;;5074660;28;19914;-69
2021/08/14 01:32:28;;;;;;;;;;;;;;;;;;5072160;28;20295;-69
2021/08/14 01:34:54;;;;;;;;;;;;;;;;;;5077925;28;19915;-69
2021/08/14 01:37:20;;;;;;;;;;;;;;;;;;5075165;28;19924;-69
2021/08/14 01:39:45;;;;;;;;;;;;;;;;;;5074553;28;20360;-69
2021/08/14 01:42:11;;;;;;;;;;;;;;;;;;5074915;28;19999;-69
2021/08/14 01:44:37;;;;;;;;;;;;;;;;;;5070548;28;19912;-69
2021/08/14 01:47:03;;;;;;;;;;;;;;;;;;5077867;28;19916;-69
2021/08/14 01:49:29;;;;;;;;;;;;;;;;;;5074888;28;19908;-69
2021/08/14 01:51:55;;;;;;;;;;;;;;;;;;5074926;28;19912;-69
2021/08/14 01:54:21;;;;;;;;;;;;;;;;;;5074791;28;19916;-69
2021/08/14 01:56:47;;;;;;;;;;;;;;;;;;5071879;28;20352;-69
2021/08/14 01:59:12;;;;;;;;;;;;;;;;;;5075127;28;19908;-69
2021/08/14 02:01:38;;;;;;;;;;;;;;;;;;5075573;28;20363;-69
2021/08/14 02:04:04;;;;;;;;;;;;;;;;;;5074644;28;19948;-69
2021/08/14 02:06:30;;;;;;;;;;;;;;;;;;5074299;28;19913;-69
2021/08/14 02:08:56;;;;;;;;;;;;;;;;;;5073007;28;20386;-69
2021/08/14 02:11:22;;;;;;;;;;;;;;;;;;5072812;28;19919;-69
2021/08/14 02:13:48;;;;;;;;;;;;;;;;;;5076074;28;19912;-68
2021/08/14 02:16:14;;;;;;;;;;;;;;;;;;5074427;28;19927;-69
2021/08/14 02:18:39;;;;;;;;;;;;;;;;;;5074324;28;19913;-69
2021/08/14 02:21:05;;;;;;;;;;;;;;;;;;5073887;28;20279;-69
2021/08/14 02:23:31;;;;;;;;;;;;;;;;;;5070075;28;19920;-69
2021/08/14 02:25:57;;;;;;;;;;;;;;;;;;5077045;28;19909;-69
2021/08/14 02:28:23;;;;;;;;;;;;;;;;;;5074335;28;19919;-69
2021/08/14 02:30:49;;;;;;;;;;;;;;;;;;5074028;28;20372;-69
2021/08/14 02:33:15;;;;;;;;;;;;;;;;;;5073567;28;19912;-69
2021/08/14 02:35:41;;;;;;;;;;;;;;;;;;5069765;28;20388;-70
2021/08/14 02:38:07;;;;;;;;;;;;;;;;;;5076214;28;19908;-69
2021/08/14 02:40:34;;;;;;;;;;;;;;;;;;5074405;28;20417;-69
2021/08/14 02:43:00;;;;;;;;;;;;;;;;;;5073584;28;19923;-69
2021/08/14 02:45:26;;;;;;;;;;;;;;;;;;5073596;28;19998;-69
2021/08/14 02:47:54;;;;;;;;;;;;;;;;;;5071433;28;20315;-69
2021/08/14 02:50:20;;;;;;;;;;;;;;;;;;5073456;28;19954;-69
2021/08/14 02:52:45;;;;;;;;;;;;;;;;;;5090495;28;19912;-69
2021/08/14 02:55:11;;;;;;;;;;;;;;;;;;5073653;28;19916;-69
2021/08/14 02:57:37;;;;;;;;;;;;;;;;;;5073204;28;20394;-69
2021/08/14 03:00:03;;;;;;;;;;;;;;;;;;5072938;28;19912;-69
2021/08/14 03:02:29;;;;;;;;;;;;;;;;;;5070287;28;19956;-69
2021/08/14 03:04:55;;;;;;;;;;;;;;;;;;5076284;28;19909;-69
2021/08/14 03:07:21;;;;;;;;;;;;;;;;;;5073408;28;19912;-69
2021/08/14 03:09:46;;;;;;;;;;;;;;;;;;5073434;28;19919;-69
2021/08/14 03:12:12;;;;;;;;;;;;;;;;;;5073243;28;20020;-69
2021/08/14 03:14:38;;;;;;;;;;;;;;;;;;5068879;28;20018;-69
2021/08/14 03:17:05;;;;;;;;;;;;;;;;;;5076571;28;19916;-69
2021/08/14 03:19:31;;;;;;;;;;;;;;;;;;5072498;28;20370;-69
2021/08/14 03:21:57;;;;;;;;;;;;;;;;;;5073145;28;20353;-69
2021/08/14 03:24:23;;;;;;;;;;;;;;;;;;5073449;28;19912;-69
2021/08/14 03:26:49;;;;;;;;;;;;;;;;;;5070798;28;19920;-69
2021/08/14 03:29:15;;;;;;;;;;;;;;;;;;5073187;28;20331;-69
2021/08/14 03:31:41;;;;;;;;;;;;;;;;;;5074509;28;20007;-69
2021/08/14 03:34:07;;;;;;;;;;;;;;;;;;5072645;28;19955;-69
2021/08/14 03:36:32;;;;;;;;;;;;;;;;;;5073197;28;19926;-69
2021/08/14 03:38:58;;;;;;;;;;;;;;;;;;5071696;28;19924;-69
2021/08/14 03:41:24;;;;;;;;;;;;;;;;;;5071210;28;20003;-69
2021/08/14 03:43:50;;;;;;;;;;;;;;;;;;5075127;28;20449;-69
2021/08/14 03:46:16;;;;;;;;;;;;;;;;;;5073094;28;19913;-69
2021/08/14 03:48:42;;;;;;;;;;;;;;;;;;5072797;28;20394;-69
2021/08/14 03:51:08;;;;;;;;;;;;;;;;;;5073209;28;19912;-69
2021/08/14 03:53:34;;;;;;;;;;;;;;;;;;5068236;28;19913;-69
2021/08/14 03:55:59;;;;;;;;;;;;;;;;;;5076288;28;19963;-69
2021/08/14 03:58:25;;;;;;;;;;;;;;;;;;5072882;28;19999;-69
2021/08/14 04:00:51;;;;;;;;;;;;;;;;;;5072669;28;19916;-69
2021/08/14 04:03:17;;;;;;;;;;;;;;;;;;5072665;28;19912;-71
2021/08/14 04:05:43;;;;;;;;;;;;;;;;;;5069500;28;19913;-69
2021/08/14 04:08:09;;;;;;;;;;;;;;;;;;5074316;28;19909;-69
2021/08/14 04:10:35;;;;;;;;;;;;;;;;;;5073267;28;19936;-69
2021/08/14 04:13:01;;;;;;;;;;;;;;;;;;5072924;28;19958;-69
2021/08/14 04:15:29;;;;;;;;;;;;;;;;;;5072794;28;20286;-69
2021/08/14 04:17:54;;;;;;;;;;;;;;;;;;5070406;28;20015;-69
2021/08/14 04:20:20;;;;;;;;;;;;;;;;;;5054106;28;20011;-69
2021/08/14 04:22:46;;;;;;;;;;;;;;;;;;5074004;28;19909;-69
2021/08/14 04:25:12;;;;;;;;;;;;;;;;;;5072748;28;19951;-69
2021/08/14 04:27:38;;;;;;;;;;;;;;;;;;5072522;28;19936;-69
2021/08/14 04:30:04;;;;;;;;;;;;;;;;;;5073462;28;19916;-69
2021/08/14 04:32:30;;;;;;;;;;;;;;;;;;5073067;28;19919;-69
2021/08/14 04:34:56;;;;;;;;;;;;;;;;;;5078951;28;19951;-69
2021/08/14 04:37:22;;;;;;;;;;;;;;;;;;5076178;28;20268;-69
2021/08/14 04:39:48;;;;;;;;;;;;;;;;;;5075731;28;19912;-69
2021/08/14 04:42:13;;;;;;;;;;;;;;;;;;5060892;28;20004;-69
2021/08/14 04:44:39;;;;;;;;;;;;;;;;;;5072363;28;19912;-69
2021/08/14 04:47:05;;;;;;;;;;;;;;;;;;5078620;28;19912;-69
2021/08/14 04:49:31;;;;;;;;;;;;;;;;;;5077644;28;20442;-69
2021/08/14 04:51:57;;;;;;;;;;;;;;;;;;5076035;28;19919;-69
2021/08/14 04:54:23;;;;;;;;;;;;;;;;;;5075692;28;19913;-69
2021/08/14 04:56:49;;;;;;;;;;;;;;;;;;5073106;28;19932;-69
2021/08/14 04:59:15;;;;;;;;;;;;;;;;;;5076308;28;19971;-69
2021/08/14 05:01:40;;;;;;;;;;;;;;;;;;5076625;28;19916;-69
2021/08/14 05:04:06;;;;;;;;;;;;;;;;;;5075468;28;20348;-69
2021/08/14 05:06:32;;;;;;;;;;;;;;;;;;5075832;28;20082;-69
2021/08/14 05:08:58;;;;;;;;;;;;;;;;;;5074246;28;20018;-70
2021/08/14 05:11:24;;;;;;;;;;;;;;;;;;5074134;28;19909;-69
2021/08/14 05:13:50;;;;;;;;;;;;;;;;;;5077115;28;19999;-69
2021/08/14 05:16:16;;;;;;;;;;;;;;;;;;5075031;28;19920;-69
2021/08/14 05:18:42;;;;;;;;;;;;;;;;;;5075448;28;19919;-69
2021/08/14 05:21:08;;;;;;;;;;;;;;;;;;5075456;28;20287;-69
2021/08/14 05:23:34;;;;;;;;;;;;;;;;;;5070795;28;20205;-69
2021/08/14 05:26:00;;;;;;;;;;;;;;;;;;5078772;28;19909;-69
2021/08/14 05:28:26;;;;;;;;;;;;;;;;;;5075337;28;19913;-68
2021/08/14 05:30:52;;;;;;;;;;;;;;;;;;5075284;28;19920;-71
2021/08/14 05:33:17;;;;;;;;;;;;;;;;;;5075472;28;19912;-68
2021/08/14 05:35:43;;;;;;;;;;;;;;;;;;5071379;28;20014;-71
2021/08/14 05:38:09;;;;;;;;;;;;;;;;;;5076697;28;19916;-70
2021/08/14 05:40:35;;;;;;;;;;;;;;;;;;5075995;28;20401;-70
2021/08/14 05:43:03;;;;;;;;;;;;;;;;;;5074495;28;19916;-69
2021/08/14 05:45:29;;;;;;;;;;;;;;;;;;5074899;28;19919;-68
2021/08/14 05:47:55;;;;;;;;;;;;;;;;;;5073403;28;19917;-68
2021/08/14 05:50:21;;;;;;;;;;;;;;;;;;5055516;28;19923;-70
2021/08/14 05:52:47;;;;;;;;;;;;;;;;;;5076740;28;20367;-71
2021/08/14 05:55:13;;;;;;;;;;;;;;;;;;5074958;28;19916;-70
2021/08/14 05:57:39;;;;;;;;;;;;;;;;;;5074664;28;19927;-70
2021/08/14 06:00:04;;;;;;;;;;;;;;;;;;5073313;28;19967;-68
2021/08/14 06:02:30;;;;;;;;;;;;;;;;;;5071411;28;19917;-70
2021/08/14 06:04:56;;;;;;;;;;;;;;;;;;5077544;28;20287;-68
2021/08/14 06:07:22;;;;;;;;;;;;;;;;;;5074627;28;19967;-68
2021/08/14 06:09:48;;;;;;;;;;;;;;;;;;5074150;28;20367;-68
2021/08/14 06:12:14;;;;;;;;;;;;;;;;;;5074543;28;19944;-68
2021/08/14 06:14:41;;;;;;;;;;;;;;;;;;5069576;28;20322;-68
2021/08/14 06:17:06;;;;;;;;;;;;;;;;;;5076607;28;20299;-68
2021/08/14 06:19:32;;;;;;;;;;;;;;;;;;5074985;28;20007;-68
2021/08/14 06:21:58;;;;;;;;;;;;;;;;;;5073949;28;19913;-68
2021/08/14 06:24:24;;;;;;;;;;;;;;;;;;5074010;28;20006;-68
2021/08/14 06:26:50;;;;;;;;;;;;;;;;;;5071965;28;19955;-68
2021/08/14 06:29:16;;;;;;;;;;;;;;;;;;5074077;28;20328;-68
2021/08/14 06:31:42;;;;;;;;;;;;;;;;;;5075067;28;19909;-68
2021/08/14 06:34:08;;;;;;;;;;;;;;;;;;5074181;28;19912;-68
2021/08/14 06:36:34;;;;;;;;;;;;;;;;;;5073580;28;20038;-68
2021/08/14 06:39:00;;;;;;;;;;;;;;;;;;5072763;28;19966;-68
2021/08/14 06:41:25;;;;;;;;;;;;;;;;;;5071892;28;19921;-69
2021/08/14 06:43:51;;;;;;;;;;;;;;;;;;5075974;28;20394;-68
2021/08/14 06:46:19;;;;;;;;;;;;;;;;;;5073422;28;19973;-70
2021/08/14 06:48:45;;;;;;;;;;;;;;;;;;5073466;28;20244;-70
2021/08/14 06:51:11;;;;;;;;;;;;;;;;;;5073762;28;19959;-68
2021/08/14 06:53:37;;;;;;;;;;;;;;;;;;5068266;28;19919;-70
2021/08/14 06:56:03;;;;;;;;;;;;;;;;;;5077160;28;19916;-70
2021/08/14 06:58:29;;;;;;;;;;;;;;;;;;5073256;28;19957;-70
2021/08/14 07:00:55;;;;;;;;;;;;;;;;;;5073054;28;19913;-70
2021/08/14 07:03:21;;;;;;;;;;;;;;;;;;5073655;28;19912;-70
2021/08/14 07:05:46;;;;;;;;;;;;;;;;;;5070350;28;20436;-70
2021/08/14 07:08:12;;;;;;;;;;;;;;;;;;5074369;28;19916;-70
2021/08/14 07:10:38;;;;;;;;;;;;;;;;;;5074783;28;19908;-70
2021/08/14 07:13:04;;;;;;;;;;;;;;;;;;5072645;28;19912;-68
2021/08/14 07:15:30;;;;;;;;;;;;;;;;;;5073189;28;19920;-68
2021/08/14 07:17:56;;;;;;;;;;;;;;;;;;5071337;28;19935;-68
2021/08/14 07:20:22;;;;;;;;;;;;;;;;;;5072460;28;19912;-70
2021/08/14 07:22:48;;;;;;;;;;;;;;;;;;5075204;28;20015;-70
2021/08/14 07:25:14;;;;;;;;;;;;;;;;;;5072603;28;19935;-70
2021/08/14 07:27:40;;;;;;;;;;;;;;;;;;5073077;28;19912;-70
2021/08/14 07:30:05;;;;;;;;;;;;;;;;;;5072923;28;19912;-70
2021/08/14 07:32:31;;;;;;;;;;;;;;;;;;5069155;28;19959;-70
2021/08/14 07:34:57;;;;;;;;;;;;;;;;;;5076202;28;19935;-70
2021/08/14 07:37:23;;;;;;;;;;;;;;;;;;5072872;28;19949;-69
2021/08/14 07:39:49;;;;;;;;;;;;;;;;;;5073084;28;19913;-68
2021/08/14 07:42:15;;;;;;;;;;;;;;;;;;5073011;28;19919;-69
2021/08/14 07:44:41;;;;;;;;;;;;;;;;;;5070871;28;19921;-70
2021/08/14 07:47:07;;;;;;;;;;;;;;;;;;5074641;28;19909;-70
2021/08/14 07:49:32;;;;;;;;;;;;;;;;;;5073516;28;19912;-68
2021/08/14 07:51:58;;;;;;;;;;;;;;;;;;5073009;28;19912;-70
2021/08/14 07:54:24;;;;;;;;;;;;;;;;;;5072776;28;20451;-70
2021/08/14 07:56:50;;;;;;;;;;;;;;;;;;5069989;28;19921;-70
2021/08/14 07:59:16;;;;;;;;;;;;;;;;;;5073346;28;19909;-70
2021/08/14 08:01:42;;;;;;;;;;;;;;;;;;5074239;28;20375;-70
2021/08/14 08:04:08;;;;;;;;;;;;;;;;;;5072387;28;20427;-70
2021/08/14 08:06:34;;;;;;;;;;;;;;;;;;5076393;28;19916;-70
2021/08/14 08:09:00;;;;;;;;;;;;;;;;;;5075857;28;19919;-61
2021/08/14 08:11:25;;;;;;;;;;;;;;;;;;5074640;28;19920;-61
2021/08/14 08:13:51;;;;;;;;;;;;;;;;;;5078845;28;19983;-61
2021/08/14 08:16:17;;;;;;;;;;;;;;;;;;5076307;28;19934;-61
2021/08/14 08:18:43;;;;;;;;;;;;;;;;;;5076302;28;19967;-61
2021/08/14 08:21:09;;;;;;;;;;;;;;;;;;5076705;28;19912;-61
2021/08/14 08:23:35;;;;;;;;;;;;;;;;;;5072607;28;19935;-61
2021/08/14 08:26:01;;;;;;;;;;;;;;;;;;5079804;28;19908;-61
2021/08/14 08:28:27;;;;;;;;;;;;;;;;;;5076046;28;20280;-61
2021/08/14 08:30:53;;;;;;;;;;;;;;;;;;5076146;28;19924;-61
2021/08/14 08:33:18;;;;;;;;;;;;;;;;;;5076463;28;19912;-61
2021/08/14 08:35:44;;;;;;;;;;;;;;;;;;5072887;28;19913;-61
2021/08/14 08:38:10;;;;;;;;;;;;;;;;;;5077790;28;19908;-61
2021/08/14 08:40:36;;;;;;;;;;;;;;;;;;5076774;28;20383;-62
2021/08/14 08:43:02;;;;;;;;;;;;;;;;;;5076364;28;19912;-62
2021/08/14 08:45:28;;;;;;;;;;;;;;;;;;5075912;28;22111;-62
2021/08/14 08:47:54;;;;;;;;;;;;;;;;;;5058242;28;19919;-62
2021/08/14 08:50:20;;;;;;;;;;;;;;;;;;5075547;28;19954;-60
2021/08/14 08:52:46;;;;;;;;;;;;;;;;;;5076862;28;19952;-61
2021/08/14 08:55:12;;;;;;;;;;;;;;;;;;5075725;28;20011;-62
2021/08/14 08:57:38;;;;;;;;;;;;;;;;;;5075455;28;19966;-62
2021/08/14 09:00:04;;;;;;;;;;;;;;;;;;5075430;28;19912;-62
2021/08/14 09:02:30;;;;;;;;;;;;;;;;;;5072939;28;19912;-60
2021/08/14 09:04:56;;;;;;;;;;;;;;;;;;5078209;28;20323;-61
2021/08/14 09:07:21;;;;;;;;;;;;;;;;;;5075284;28;20011;-61
2021/08/14 09:09:47;;;;;;;;;;;;;;;;;;5075499;28;19916;-61
2021/08/14 09:12:14;;;;;;;;;;;;;;;;;;5075744;28;19915;-61
2021/08/14 09:14:39;;;;;;;;;;;;;;;;;;5071540;28;20291;-62
2021/08/14 09:17:05;;;;;;;;;;;;;;;;;;5076933;28;19928;-61
2021/08/14 09:19:31;;;;;;;;;;;;;;;;;;5076154;28;19955;-61
2021/08/14 09:21:57;;;;;;;;;;;;;;;;;;5075259;28;19913;-61
2021/08/14 09:24:23;;;;;;;;;;;;;;;;;;5075526;28;19919;-61
2021/08/14 09:26:49;;;;;;;;;;;;;;;;;;5072495;28;20352;-61
2021/08/14 09:29:15;;;;;;;;;;;;;;;;;;5075268;28;19962;-61
2021/08/14 09:31:41;;;;;;;;;;;;;;;;;;5076566;28;19908;-61
2021/08/14 09:34:06;;;;;;;;;;;;;;;;;;5075344;28;19917;-61
2021/08/14 09:36:32;;;;;;;;;;;;;;;;;;5074456;28;19967;-61
2021/08/14 09:38:58;;;;;;;;;;;;;;;;;;5073464;28;20370;-61
2021/08/14 09:41:24;;;;;;;;;;;;;;;;;;5073456;28;19909;-61
2021/08/14 09:43:50;;;;;;;;;;;;;;;;;;5077327;28;19999;-61
2021/08/14 09:46:16;;;;;;;;;;;;;;;;;;5074653;28;19917;-61
2021/08/14 09:48:42;;;;;;;;;;;;;;;;;;5059471;28;19916;-61
2021/08/14 09:51:08;;;;;;;;;;;;;;;;;;5074726;28;19965;-61
2021/08/14 09:53:33;;;;;;;;;;;;;;;;;;5054657;28;19912;-61
2021/08/14 09:55:59;;;;;;;;;;;;;;;;;;5078147;28;19995;-61
2021/08/14 09:58:25;;;;;;;;;;;;;;;;;;5074356;28;20378;-61
2021/08/14 10:00:52;;;;;;;;;;;;;;;;;;5074509;28;19913;-61
2021/08/14 10:03:18;;;;;;;;;;;;;;;;;;5074766;28;19912;-61
2021/08/14 10:05:44;;;;;;;;;;;;;;;;;;5071056;28;19966;-61
2021/08/14 10:08:10;;;;;;;;;;;;;;;;;;5076111;28;19913;-61
2021/08/14 10:10:36;;;;;;;;;;;;;;;;;;5090158;28;19920;-61
2021/08/14 10:13:02;;;;;;;;;;;;;;;;;;5074665;28;20295;-61
2021/08/14 10:15:28;;;;;;;;;;;;;;;;;;5074176;28;19926;-61
2021/08/14 10:17:53;;;;;;;;;;;;;;;;;;5072248;28;19982;-61
2021/08/14 10:20:19;;;;;;;;;;;;;;;;;;5055269;28;20325;-61
2021/08/14 10:22:45;;;;;;;;;;;;;;;;;;5075441;28;19915;-61
2021/08/14 10:25:11;;;;;;;;;;;;;;;;;;5074308;28;19966;-61
2021/08/14 10:27:37;;;;;;;;;;;;;;;;;;5073716;28;19913;-61
2021/08/14 10:30:03;;;;;;;;;;;;;;;;;;5073403;28;20022;-61
2021/08/14 10:32:29;;;;;;;;;;;;;;;;;;5071276;28;19921;-61
2021/08/14 10:34:55;;;;;;;;;;;;;;;;;;5076221;28;19916;-61
2021/08/14 10:37:21;;;;;;;;;;;;;;;;;;5073651;28;20336;-61
2021/08/14 10:39:47;;;;;;;;;;;;;;;;;;5073785;28;19913;-61
2021/08/14 10:42:12;;;;;;;;;;;;;;;;;;5058808;28;20287;-61
2021/08/14 10:44:38;;;;;;;;;;;;;;;;;;5069285;28;19920;-61
2021/08/14 10:47:04;;;;;;;;;;;;;;;;;;5077106;28;19997;-61
2021/08/14 10:49:30;;;;;;;;;;;;;;;;;;5073343;28;19912;-61
2021/08/14 10:51:56;;;;;;;;;;;;;;;;;;5073289;28;19935;-61
2021/08/14 10:54:22;;;;;;;;;;;;;;;;;;5073415;28;19969;-61
2021/08/14 10:56:48;;;;;;;;;;;;;;;;;;5070540;28;19920;-61
2021/08/14 10:59:14;;;;;;;;;;;;;;;;;;5074293;28;20383;-61
2021/08/14 11:01:40;;;;;;;;;;;;;;;;;;5074723;28;19915;-61
2021/08/14 11:04:05;;;;;;;;;;;;;;;;;;5073307;28;19966;-61
2021/08/14 11:06:32;;;;;;;;;;;;;;;;;;5072878;28;20011;-61
2021/08/14 11:08:58;;;;;;;;;;;;;;;;;;5071945;28;19912;-61
2021/08/14 11:11:24;;;;;;;;;;;;;;;;;;5071846;28;19915;-61
2021/08/14 11:13:50;;;;;;;;;;;;;;;;;;5075325;28;19913;-61
2021/08/14 11:16:16;;;;;;;;;;;;;;;;;;5073067;28;19920;-61
2021/08/14 11:18:42;;;;;;;;;;;;;;;;;;5073074;28;19916;-62
2021/08/14 11:21:08;;;;;;;;;;;;;;;;;;5072949;28;19998;-61
2021/08/14 11:23:33;;;;;;;;;;;;;;;;;;5069383;28;19913;-61
2021/08/14 11:25:59;;;;;;;;;;;;;;;;;;5076489;28;20489;-61
2021/08/14 11:28:25;;;;;;;;;;;;;;;;;;5072792;28;19916;-61
2021/08/14 11:30:51;;;;;;;;;;;;;;;;;;5073020;28;19936;-61
2021/08/14 11:33:17;;;;;;;;;;;;;;;;;;5073143;28;19912;-61
2021/08/14 11:35:43;;;;;;;;;;;;;;;;;;5069678;28;19912;-61
2021/08/14 11:38:09;;;;;;;;;;;;;;;;;;5074669;28;19924;-61
2021/08/14 11:40:35;;;;;;;;;;;;;;;;;;5073362;28;19974;-61
2021/08/14 11:43:01;;;;;;;;;;;;;;;;;;5072758;28;19935;-61
2021/08/14 11:45:26;;;;;;;;;;;;;;;;;;5073440;28;19912;-61
2021/08/14 11:47:52;;;;;;;;;;;;;;;;;;5070170;28;20356;-61
2021/08/14 11:50:18;;;;;;;;;;;;;;;;;;5072697;28;19908;-61
2021/08/14 11:52:44;;;;;;;;;;;;;;;;;;5074387;28;19909;-61
2021/08/14 11:55:10;;;;;;;;;;;;;;;;;;5073090;28;19958;-61
2021/08/14 11:57:36;;;;;;;;;;;;;;;;;;5072847;28;20015;-61
2021/08/14 12:00:05;;;;;;;;;;;;;;;;;;5071817;28;19947;-61
2021/08/14 12:02:31;;;;;;;;;;;;;;;;;;5069143;28;19995;-61
2021/08/14 12:04:57;;;;;;;;;;;;;;;;;;5075977;28;19947;-61
2021/08/14 12:07:23;;;;;;;;;;;;;;;;;;5072830;28;19913;-61
2021/08/14 12:09:49;;;;;;;;;;;;;;;;;;5057822;28;19908;-61
2021/08/14 12:12:15;;;;;;;;;;;;;;;;;;5072440;28;19956;-61
2021/08/14 12:14:42;;;;;;;;;;;;;;;;;;5068296;28;19936;-61
2021/08/14 12:17:08;;;;;;;;;;;;;;;;;;5074813;28;20257;-61
2021/08/14 12:19:34;;;;;;;;;;;;;;;;;;5072703;28;19909;-61
2021/08/14 12:22:00;;;;;;;;;;;;;;;;;;5072799;28;19912;-61
2021/08/14 12:24:26;;;;;;;;;;;;;;;;;;5072708;28;19919;-61
2021/08/14 12:26:52;;;;;;;;;;;;;;;;;;5069879;28;19956;-61
2021/08/14 12:29:18;;;;;;;;;;;;;;;;;;5072591;28;19909;-61
2021/08/14 12:31:44;;;;;;;;;;;;;;;;;;5073459;28;19962;-61
2021/08/14 12:34:10;;;;;;;;;;;;;;;;;;5072631;28;19974;-61
2021/08/14 12:36:36;;;;;;;;;;;;;;;;;;5072478;28;20375;-61
2021/08/14 12:39:02;;;;;;;;;;;;;;;;;;5071441;28;19927;-61
2021/08/14 12:41:28;;;;;;;;;;;;;;;;;;5070365;28;19913;-61
2021/08/14 12:43:54;;;;;;;;;;;;;;;;;;5074660;28;19952;-61
2021/08/14 12:46:20;;;;;;;;;;;;;;;;;;5072039;28;19989;-61
2021/08/14 12:48:45;;;;;;;;;;;;;;;;;;5072466;28;19916;-61
2021/08/14 12:51:11;;;;;;;;;;;;;;;;;;5057093;28;19918;-61
2021/08/14 12:53:37;;;;;;;;;;;;;;;;;;5071383;28;19996;-61
2021/08/14 12:56:03;;;;;;;;;;;;;;;;;;5079140;28;20394;-61
2021/08/14 12:58:31;;;;;;;;;;;;;;;;;;5076053;28;19912;-61
2021/08/14 13:00:57;;;;;;;;;;;;;;;;;;5075643;28;19913;-61
2021/08/14 13:03:24;;;;;;;;;;;;;;;;;;5075507;28;19916;-61
2021/08/14 13:05:50;;;;;;;;;;;;;;;;;;5073542;28;19913;-61
2021/08/14 13:08:16;;;;;;;;;;;;;;;;;;5075667;28;20010;-61
2021/08/14 13:10:42;;;;;;;;;;;;;;;;;;5076905;28;19912;-61
2021/08/14 13:13:08;;;;;;;;;;;;;;;;;;5075311;28;19942;-61
2021/08/14 13:15:34;;;;;;;;;;;;;;;;;;5075012;28;19927;-61
2021/08/14 13:18:00;;;;;;;;;;;;;;;;;;5074553;28;20347;-61
2021/08/14 13:20:25;;;;;;;;;;;;;;;;;;5074007;28;19916;-62
2021/08/14 13:22:53;;;;;;;;;;;;;;;;;;5077152;28;19909;-61
2021/08/14 13:25:19;;;;;;;;;;;;;;;;;;5075268;28;19920;-61
2021/08/14 13:27:45;;;;;;;;;;;;;;;;;;5074890;28;19912;-61
2021/08/14 13:30:11;;;;;;;;;;;;;;;;;;5074667;28;20240;-61
2021/08/14 13:32:37;;;;;;;;;;;;;;;;;;5070486;28;19912;-61
2021/08/14 13:35:02;;;;;;;;;;;;;;;;;;5078294;28;19912;-59
2021/08/14 13:37:28;;;;;;;;;;;;;;;;;;5074415;28;19920;-60
2021/08/14 13:39:54;;;;;;;;;;;;;;;;;;5074762;28;20253;-61
2021/08/14 13:42:20;;;;;;;;;;;;;;;;;;5074475;28;19957;-62
2021/08/14 13:44:46;;;;;;;;;;;;;;;;;;5070704;28;20368;-60
2021/08/14 13:47:12;;;;;;;;;;;;;;;;;;5074972;28;19920;-61
2021/08/14 13:49:38;;;;;;;;;;;;;;;;;;5074992;28;19999;-61
2021/08/14 13:52:03;;;;;;;;;;;;;;;;;;5074577;28;20008;-61
2021/08/14 13:54:29;;;;;;;;;;;;;;;;;;5074264;28;19949;-61
2021/08/14 13:56:55;;;;;;;;;;;;;;;;;;5070227;28;19924;-61
2021/08/14 13:59:21;;;;;;;;;;;;;;;;;;5065796;28;20206;-61
2021/08/14 14:01:47;;;;;;;;;;;;;;;;;;5071627;28;20390;-61
2021/08/14 14:04:13;;;;;;;;;;;;;;;;;;5072343;28;19970;-61
2021/08/14 14:06:39;;;;;;;;;;;;;;;;;;5074831;28;19960;-61
2021/08/14 14:09:05;;;;;;;;;;;;;;;;;;5076389;28;19916;-61
2021/08/14 14:11:31;;;;;;;;;;;;;;;;;;5071258;28;19913;-61
2021/08/14 14:13:58;;;;;;;;;;;;;;;;;;5075083;28;19921;-62
2021/08/14 14:16:24;;;;;;;;;;;;;;;;;;5069899;28;19974;-61
2021/08/14 14:18:51;;;;;;;;;;;;;;;;;;5068389;28;19917;-61
2021/08/14 14:21:17;;;;;;;;;;;;;;;;;;5068062;28;19913;-61
2021/08/14 14:23:43;;;;;;;;;;;;;;;;;;5070688;28;19935;-61
2021/08/14 14:26:09;;;;;;;;;;;;;;;;;;5067878;28;20364;-62
2021/08/14 14:28:35;;;;;;;;;;;;;;;;;;5071291;28;19917;-62
2021/08/14 14:31:01;;;;;;;;;;;;;;;;;;5069818;28;19928;-61
2021/08/14 14:33:27;;;;;;;;;;;;;;;;;;5069647;28;19913;-61
2021/08/14 14:35:53;;;;;;;;;;;;;;;;;;5069163;28;20037;-61
2021/08/14 14:38:19;;;;;;;;;;;;;;;;;;5062596;28;19917;-61
2021/08/14 14:40:44;;;;;;;;;;;;;;;;;;5061750;28;19908;-61
2021/08/14 14:43:10;;;;;;;;;;;;;;;;;;5069598;28;19913;-61
2021/08/14 14:45:36;;;;;;;;;;;;;;;;;;5068975;28;19916;-61
2021/08/14 14:48:02;;;;;;;;;;;;;;;;;;5069284;28;20003;-60
2021/08/14 14:50:28;;;;;;;;;;;;;;;;;;5059747;28;19934;-61
2021/08/14 14:52:54;;;;;;;;;;;;;;;;;;5074338;28;19909;-61
2021/08/14 14:55:22;;;;;;;;;;;;;;;;;;5071897;28;19912;-61
2021/08/14 14:57:48;;;;;;;;;;;;;;;;;;5070753;28;20354;-61
2021/08/14 15:00:14;;;;;;;;;;;;;;;;;;5072227;28;20006;-60
2021/08/14 15:02:42;;;;;;;;;;;;;;;;;;5060536;28;20404;-59
2021/08/14 15:05:08;;;;;;;;;;;;;;;;;;5051429;28;19926;-61
2021/08/14 15:07:34;;;;;;;;;;;;;;;;;;5072343;28;19916;-60
2021/08/14 15:10:00;;;;;;;;;;;;;;;;;;5071959;28;20273;-61
2021/08/14 15:12:26;;;;;;;;;;;;;;;;;;5073206;28;19943;-59
2021/08/14 15:14:52;;;;;;;;;;;;;;;;;;5069228;28;19931;-60
2021/08/14 15:17:18;;;;;;;;;;;;;;;;;;5072129;28;19959;-61
2021/08/14 15:19:44;;;;;;;;;;;;;;;;;;5057135;28;19954;-61
2021/08/14 15:22:10;;;;;;;;;;;;;;;;;;5071889;28;20458;-61
2021/08/14 15:24:36;;;;;;;;;;;;;;;;;;5072117;28;20313;-59
2021/08/14 15:27:02;;;;;;;;;;;;;;;;;;5070742;28;19924;-59
2021/08/14 15:29:28;;;;;;;;;;;;;;;;;;5068968;28;20433;-59
2021/08/14 15:31:54;;;;;;;;;;;;;;;;;;5071710;28;19958;-62
2021/08/14 15:34:20;;;;;;;;;;;;;;;;;;5066616;28;19912;-59
2021/08/14 15:36:47;;;;;;;;;;;;;;;;;;5075620;28;20284;-61
2021/08/14 15:39:12;;;;;;;;;;;;;;;;;;5071683;28;19917;-60
2021/08/14 15:41:38;;;;;;;;;;;;;;;;;;5068261;28;19920;-59
2021/08/14 15:44:04;;;;;;;;;;;;;;;;;;5080614;28;20451;-60
2021/08/14 15:46:30;;;;;;;;;;;;;;;;;;5066045;28;19994;-62
2021/08/14 15:48:56;;;;;;;;;;;;;;;;;;5070577;28;19912;-60
2021/08/14 15:51:22;;;;;;;;;;;;;;;;;;5071421;28;19916;-62
2021/08/14 15:53:48;;;;;;;;;;;;;;;;;;5051522;28;20334;-60
2021/08/14 15:56:14;;;;;;;;;;;;;;;;;;5072058;28;20003;-60
2021/08/14 15:58:39;;;;;;;;;;;;;;;;;;5070259;28;20434;-60
2021/08/14 16:01:05;;;;;;;;;;;;;;;;;;5067468;28;19959;-60
2021/08/14 16:03:31;;;;;;;;;;;;;;;;;;5071743;28;20003;-60
2021/08/14 16:05:57;;;;;;;;;;;;;;;;;;5070644;28;19920;-60
2021/08/14 16:08:23;;;;;;;;;;;;;;;;;;5071402;28;20364;-60
2021/08/14 16:10:49;;;;;;;;;;;;;;;;;;5073621;28;19908;-60
2021/08/14 16:13:15;;;;;;;;;;;;;;;;;;5072148;28;19927;-70
2021/08/14 16:15:41;;;;;;;;;;;;;;;;;;5071556;28;20392;-69
2021/08/14 16:18:07;;;;;;;;;;;;;;;;;;5067490;28;19971;-72
2021/08/14 16:20:32;;;;;;;;;;;;;;;;;;5084730;28;19917;-69
2021/08/14 16:23:02;;;;;;;;;;;;;;;;;;5073883;28;20019;-69
2021/08/14 16:25:28;;;;;;;;;;;;;;;;;;5070073;28;19912;-69
2021/08/14 16:27:54;;;;;;;;;;;;;;;;;;5073491;28;19913;-68
2021/08/14 16:30:19;;;;;;;;;;;;;;;;;;5073742;28;19988;-67
2021/08/14 16:32:45;;;;;;;;;;;;;;;;;;5073070;28;19983;-66
2021/08/14 16:35:11;;;;;;;;;;;;;;;;;;5055744;28;19916;-67